Time;durP1;ratioP1;P1;durP2;ratioP2;P2;SDS_P1;SDS_P2;PMS_P1;PMS_P2;Temp;Humidity;BMP_temperature;BMP_pressure;BME280_temperature;BME280_humidity;BME280_pressure;Samples;Min_cycle;Max_cycle;Signal;HPM_P1;HPM_P2
2022/06/10 00:01:42;;;;;;;1999.90;999.90;;;11.10;99.90;;;;;;5084782;28;20561;-75
2022/06/10 00:04:08;;;;;;;1999.90;999.90;;;11.10;99.90;;;;;;5092676;28;20040;-76
2022/06/10 00:06:34;;;;;;;1999.90;999.90;;;11.10;99.90;;;;;;5084658;28;20051;-75
2022/06/10 00:08:59;;;;;;;1999.90;999.90;;;11.10;99.90;;;;;;5088955;28;20039;-76
2022/06/10 00:11:25;;;;;;;1999.90;999.90;;;11.10;99.90;;;;;;5086547;28;20032;-76
2022/06/10 00:13:50;;;;;;;1999.90;999.90;;;11.10;99.90;;;;;;5087009;28;20040;-75
2022/06/10 00:16:19;;;;;;;1999.90;999.90;;;11.00;99.90;;;;;;5078456;28;20039;-76
2022/06/10 00:18:44;;;;;;;1999.90;999.90;;;11.00;99.90;;;;;;5089804;28;20055;-76
2022/06/10 00:21:12;;;;;;;1999.90;999.90;;;11.00;99.90;;;;;;5079585;28;20040;-76
2022/06/10 00:23:39;;;;;;;1999.90;999.90;;;11.00;99.90;;;;;;5055068;28;20057;-75
2022/06/10 00:26:06;;;;;;;1999.90;999.90;;;11.00;99.90;;;;;;5080493;28;20123;-76
2022/06/10 00:28:32;;;;;;;1999.90;999.90;;;11.00;99.90;;;;;;5081353;28;20178;-76
2022/06/10 00:30:58;;;;;;;1999.90;999.90;;;11.00;99.90;;;;;;5086660;28;20469;-76
2022/06/10 00:33:24;;;;;;;1999.90;999.90;;;11.00;99.90;;;;;;5103369;28;20039;-76
2022/06/10 00:35:50;;;;;;;1999.90;999.90;;;10.90;99.90;;;;;;5095043;28;20036;-76
2022/06/10 00:38:15;;;;;;;1999.90;999.90;;;10.90;99.90;;;;;;5098696;28;20054;-76
2022/06/10 00:40:46;;;;;;;1999.90;999.90;;;10.80;99.90;;;;;;5059872;28;20092;-76
2022/06/10 00:43:18;;;;;;;1999.90;999.90;;;10.80;99.90;;;;;;5082180;28;20472;-75
2022/06/10 00:45:50;;;;;;;1999.90;999.90;;;10.80;99.90;;;;;;5091812;28;20043;-76
2022/06/10 00:48:24;;;;;;;1999.90;999.90;;;10.80;99.90;;;;;;5070166;28;20055;-76
2022/06/10 00:50:50;;;;;;;1999.90;999.90;;;10.80;99.90;;;;;;5084063;28;20044;-76
2022/06/10 00:53:19;;;;;;;1999.90;999.90;;;10.80;99.90;;;;;;5070291;28;20467;-76
2022/06/10 00:55:46;;;;;;;1999.90;999.90;;;10.80;99.90;;;;;;5101014;28;20497;-76
2022/06/10 00:58:15;;;;;;;1999.90;999.90;;;10.90;99.90;;;;;;5070270;28;20051;-76
2022/06/10 01:00:41;;;;;;;1999.90;999.90;;;10.90;99.90;;;;;;5090980;28;20035;-76
2022/06/10 01:03:07;;;;;;;1999.90;999.90;;;10.90;99.90;;;;;;5064020;28;20493;-76
2022/06/10 01:05:33;;;;;;;1999.90;999.90;;;10.90;99.90;;;;;;5070394;28;20059;-76
2022/06/10 01:08:07;;;;;;;1999.90;999.90;;;10.90;99.90;;;;;;5089341;28;20046;-76
2022/06/10 01:10:50;;;;;;;1999.90;999.90;;;10.90;99.90;;;;;;5048725;28;20040;-76
2022/06/10 01:13:27;;;;;;;;;;;10.90;99.90;;;;;;5063406;28;20097;-76
2022/06/10 01:16:11;;;;;;;1999.90;999.90;;;10.90;99.90;;;;;;5093888;28;20380;-75
2022/06/10 01:19:16;;;;;;;1999.90;999.90;;;10.90;99.90;;;;;;5083982;28;20045;-76
2022/06/10 01:22:09;;;;;;;1999.90;999.90;;;10.90;99.90;;;;;;5086444;28;20505;-75
2022/06/10 01:25:07;;;;;;;1999.90;999.90;;;10.90;99.90;;;;;;5081070;28;20400;-75
2022/06/10 01:27:48;;;;;;;1999.90;999.90;;;10.90;99.90;;;;;;5091776;28;20405;-76
2022/06/10 01:30:40;;;;;;;1999.90;999.90;;;10.90;99.90;;;;;;5090959;28;20154;-75
2022/06/10 01:33:20;;;;;;;1999.90;999.90;;;10.90;99.90;;;;;;5083840;28;20092;-76
2022/06/10 01:35:58;;;;;;;1999.90;999.90;;;10.90;99.90;;;;;;5091328;28;20063;-75
2022/06/10 01:38:37;;;;;;;1999.90;999.90;;;10.80;99.90;;;;;;5048975;28;20044;-76
2022/06/10 01:41:23;;;;;;;1999.90;999.90;;;10.80;99.90;;;;;;5056875;28;20465;-76
2022/06/10 01:44:23;;;;;;;1999.90;999.90;;;10.80;99.90;;;;;;5085993;28;20050;-75
2022/06/10 01:46:59;;;;;;;1999.90;999.90;;;10.80;99.90;;;;;;5047753;28;20050;-76
2022/06/10 01:49:29;;;;;;;1999.90;999.90;;;10.80;99.90;;;;;;5083159;28;20048;-76
2022/06/10 01:52:19;;;;;;;1999.90;999.90;;;10.70;99.90;;;;;;5086663;28;20119;-76
2022/06/10 01:55:13;;;;;;;1999.90;999.90;;;10.70;99.90;;;;;;5075883;28;20040;-75
2022/06/10 01:57:56;;;;;;;1999.90;999.90;;;10.70;99.90;;;;;;5082025;28;20137;-76
2022/06/10 02:00:29;;;;;;;1999.90;999.90;;;10.70;99.90;;;;;;5061213;28;20450;-76
2022/06/10 02:03:08;;;;;;;1999.90;999.90;;;10.70;99.90;;;;;;5099072;28;20046;-76
2022/06/10 02:05:49;;;;;;;1999.90;999.90;;;10.70;99.90;;;;;;5063769;28;20069;-76
2022/06/10 02:08:31;;;;;;;1999.90;999.90;;;10.70;99.90;;;;;;5040824;28;20086;-75
2022/06/10 02:11:04;;;;;;;1999.90;999.90;;;10.70;99.90;;;;;;5073897;28;20039;-75
2022/06/10 02:13:37;;;;;;;1999.90;999.90;;;10.70;99.90;;;;;;5097211;28;20309;-76
2022/06/10 02:16:04;;;;;;;;;;;10.60;99.90;;;;;;5091889;28;20051;-76
2022/06/10 02:19:13;;;;;;;1999.90;999.90;;;10.60;99.90;;;;;;5065474;28;19915;-76
2022/06/10 02:21:51;;;;;;;1999.90;999.90;;;10.60;99.90;;;;;;5070307;28;20060;-75
2022/06/10 02:24:30;;;;;;;1999.90;999.90;;;10.70;99.90;;;;;;5077001;28;20048;-76
2022/06/10 02:27:04;;;;;;;1999.90;999.90;;;10.60;99.90;;;;;;5084843;28;20488;-76
2022/06/10 02:29:50;;;;;;;1999.90;999.90;;;10.60;99.90;;;;;;5089713;28;20466;-76
2022/06/10 02:32:16;;;;;;;1999.90;999.90;;;10.60;99.90;;;;;;5082653;28;20036;-75
2022/06/10 02:34:42;;;;;;;1999.90;999.90;;;10.60;99.90;;;;;;5087116;28;20695;-76
2022/06/10 02:37:32;;;;;;;1999.90;999.90;;;10.60;99.90;;;;;;5071638;28;20167;-76
2022/06/10 02:40:18;;;;;;;1999.90;999.90;;;10.50;99.90;;;;;;5090297;28;20523;-76
2022/06/10 02:42:45;;;;;;;1999.90;999.90;;;10.50;99.90;;;;;;5068216;28;20490;-75
2022/06/10 02:45:46;;;;;;;1999.90;999.90;;;10.50;99.90;;;;;;5082235;28;20892;-76
2022/06/10 02:48:30;;;;;;;1999.90;999.90;;;10.50;99.90;;;;;;5092850;28;20443;-76
2022/06/10 02:50:56;;;;;;;1999.90;999.90;;;10.50;99.90;;;;;;5069768;28;20110;-75
2022/06/10 02:53:22;;;;;;;1999.90;999.90;;;10.50;99.90;;;;;;5088768;28;20040;-76
2022/06/10 02:55:47;;;;;;;1999.90;999.90;;;10.50;99.90;;;;;;5079525;28;20043;-76
2022/06/10 03:01:20;;;;;;;1999.90;999.90;;;10.60;99.90;;;;;;5100887;28;20501;-75
2022/06/10 03:04:31;;;;;;;1999.90;999.90;;;10.60;99.90;;;;;;5092485;28;20427;-76
2022/06/10 03:06:59;;;;;;;1999.90;999.90;;;10.60;99.90;;;;;;5095191;28;20445;-76
2022/06/10 03:09:49;;;;;;;1999.90;999.90;;;10.60;99.90;;;;;;5087490;28;20040;-76
2022/06/10 03:12:36;;;;;;;1999.90;999.90;;;10.60;99.90;;;;;;5080482;28;20119;-76
2022/06/10 03:15:43;;;;;;;1999.90;999.90;;;10.60;99.90;;;;;;5079518;28;20393;-76
2022/06/10 03:18:28;;;;;;;1999.90;999.90;;;10.70;99.90;;;;;;5036460;28;20462;-75
2022/06/10 03:21:05;;;;;;;1999.90;999.90;;;10.70;99.90;;;;;;5093341;28;20115;-75
2022/06/10 03:23:54;;;;;;;1999.90;999.90;;;10.70;99.90;;;;;;5089316;28;20075;-76
2022/06/10 03:26:26;;;;;;;1999.90;999.90;;;10.70;99.90;;;;;;5095450;28;20059;-76
2022/06/10 03:29:08;;;;;;;1999.90;999.90;;;10.70;99.90;;;;;;5086388;28;20154;-76
2022/06/10 03:31:40;;;;;;;1999.90;999.90;;;10.70;99.90;;;;;;5095327;28;20143;-76
2022/06/10 03:34:15;;;;;;;1999.90;999.90;;;10.70;99.90;;;;;;5092676;28;20538;-76
2022/06/10 03:36:41;;;;;;;1999.90;999.90;;;10.70;99.90;;;;;;5076003;28;20143;-75
2022/06/10 03:39:09;;;;;;;1999.90;999.90;;;10.70;99.90;;;;;;5071831;28;20397;-75
2022/06/10 03:42:04;;;;;;;1999.90;999.90;;;10.70;99.90;;;;;;5059537;28;20044;-76
2022/06/10 03:44:31;;;;;;;1999.90;999.90;;;10.70;99.90;;;;;;5081417;28;20055;-76
2022/06/10 03:46:58;;;;;;;1999.90;999.90;;;10.70;99.90;;;;;;5075764;28;20036;-76
2022/06/10 03:49:30;;;;;;;1999.90;999.90;;;10.70;99.90;;;;;;5095428;28;20474;-75
2022/06/10 03:51:58;;;;;;;1999.90;999.90;;;10.70;99.90;;;;;;5070440;28;20044;-75
2022/06/10 03:54:23;;;;;;;1999.90;999.90;;;10.80;99.90;;;;;;5082635;28;20459;-75
2022/06/10 03:56:52;;;;;;;1999.90;999.90;;;10.80;99.90;;;;;;5074600;28;20119;-75
2022/06/10 03:59:18;;;;;;;1999.90;999.90;;;10.80;99.90;;;;;;5073970;28;20055;-75
2022/06/10 04:01:43;;;;;;;1999.90;999.90;;;10.90;99.90;;;;;;5077388;28;20045;-75
2022/06/10 04:04:09;;;;;;;1999.90;999.90;;;10.90;99.90;;;;;;5094695;28;20036;-75
2022/06/10 04:06:35;;;;;;;1999.90;999.90;;;11.00;99.90;;;;;;5091800;28;20098;-75
2022/06/10 04:09:00;;;;;;;1999.90;999.90;;;11.00;99.90;;;;;;5067617;28;20045;-75
2022/06/10 04:11:26;;;;;;;1999.90;999.90;;;11.10;99.90;;;;;;5105561;28;20184;-75
2022/06/10 04:13:52;;;;;;;1999.90;999.90;;;11.20;99.90;;;;;;5091829;28;20100;-75
2022/06/10 04:16:17;;;;;;;1999.90;999.90;;;11.20;99.90;;;;;;5098186;28;20078;-75
2022/06/10 04:18:43;;;;;;;1999.90;999.90;;;11.30;99.90;;;;;;5077014;28;20036;-75
2022/06/10 04:21:09;;;;;;;1999.90;999.90;;;11.40;99.90;;;;;;5091063;28;20468;-75
2022/06/10 04:23:34;;;;;;;1999.90;999.90;;;11.50;99.90;;;;;;5075484;28;20051;-75
2022/06/10 04:26:00;;;;;;;1999.90;999.90;;;11.60;99.90;;;;;;5088843;28;20428;-75
2022/06/10 04:28:26;;;;;;;1999.90;999.90;;;11.70;99.90;;;;;;5089439;28;20040;-75
2022/06/10 04:30:52;;;;;;;1999.90;999.90;;;11.90;99.90;;;;;;5075265;28;20029;-75
2022/06/10 04:33:19;;;;;;;1999.90;999.90;;;12.20;99.90;;;;;;5090755;28;20465;-75
2022/06/10 04:35:47;;;;;;;1999.90;999.90;;;12.30;99.90;;;;;;5072082;28;20413;-76
2022/06/10 04:38:14;;;;;;;1999.90;999.90;;;12.50;99.90;;;;;;5058078;28;20365;-76
2022/06/10 04:40:41;;;;;;;1999.90;999.90;;;12.70;99.90;;;;;;5075451;28;20044;-76
2022/06/10 04:43:08;;;;;;;1999.90;999.90;;;12.80;99.90;;;;;;5064140;28;20419;-75
2022/06/10 04:45:38;;;;;;;1999.90;999.90;;;13.00;99.90;;;;;;5077975;28;20452;-75
2022/06/10 04:48:04;;;;;;;1999.90;999.90;;;13.10;99.90;;;;;;5081982;28;20099;-75
2022/06/10 04:50:30;;;;;;;1999.90;999.90;;;13.20;99.90;;;;;;5083878;28;20136;-75
2022/06/10 04:52:56;;;;;;;1999.90;999.90;;;13.40;99.90;;;;;;5057450;28;20090;-75
2022/06/10 04:55:23;;;;;;;1999.90;999.90;;;13.50;99.90;;;;;;5075818;28;20084;-76
2022/06/10 04:57:49;;;;;;;1999.90;999.90;;;13.50;99.90;;;;;;5087769;28;20426;-75
2022/06/10 05:00:19;;;;;;;1999.90;999.90;;;13.60;99.90;;;;;;5083191;28;20500;-75
2022/06/10 05:02:44;;;;;;;1999.90;999.90;;;13.60;99.90;;;;;;5070177;28;20450;-75
2022/06/10 05:05:10;;;;;;;1999.90;999.90;;;13.70;99.90;;;;;;5089183;28;20123;-76
2022/06/10 05:07:36;;;;;;;1999.90;999.90;;;13.70;99.90;;;;;;5057976;28;20080;-75
2022/06/10 05:10:04;;;;;;;1999.90;999.90;;;13.70;99.90;;;;;;5096962;28;20092;-76
2022/06/10 05:12:29;;;;;;;1999.90;999.90;;;13.80;99.90;;;;;;5060577;28;20050;-75
2022/06/10 05:14:55;;;;;;;1999.90;999.90;;;13.80;99.90;;;;;;5074362;28;20044;-75
2022/06/10 05:17:20;;;;;;;1999.90;999.90;;;13.90;99.90;;;;;;5085744;28;20589;-76
2022/06/10 05:19:47;;;;;;;1999.90;999.90;;;13.90;99.90;;;;;;5082881;28;20039;-75
2022/06/10 05:22:16;;;;;;;1999.90;999.90;;;13.90;99.90;;;;;;5089755;28;20490;-76
2022/06/10 05:24:42;;;;;;;1999.90;999.90;;;14.00;99.90;;;;;;5088672;28;20067;-75
2022/06/10 05:27:08;;;;;;;1999.90;999.90;;;14.10;99.90;;;;;;5070905;28;20044;-76
2022/06/10 05:29:34;;;;;;;1999.90;999.90;;;14.10;99.90;;;;;;5084045;28;20035;-76
2022/06/10 05:31:59;;;;;;;1999.90;999.90;;;14.20;99.90;;;;;;5069562;28;20048;-76
2022/06/10 05:37:10;;;;;;;1999.90;999.90;;;14.30;99.90;;;;;;5083677;28;20037;-76
2022/06/10 05:39:36;;;;;;;1999.90;999.90;;;14.40;99.90;;;;;;5042836;28;20051;-76
2022/06/10 05:42:04;;;;;;;1999.90;999.90;;;14.50;99.90;;;;;;5085444;28;20040;-76
2022/06/10 05:44:31;;;;;;;1999.90;999.90;;;14.50;99.90;;;;;;5082601;28;20044;-76
2022/06/10 05:46:57;;;;;;;1999.90;999.90;;;14.60;99.90;;;;;;5082473;28;20024;-76
2022/06/10 05:49:23;;;;;;;1999.90;999.90;;;14.70;99.90;;;;;;5075917;28;20043;-76
2022/06/10 05:51:49;;;;;;;1999.90;999.90;;;14.80;99.90;;;;;;5088213;28;20035;-75
2022/06/10 05:54:16;;;;;;;1999.90;999.90;;;14.80;99.90;;;;;;5065898;28;20047;-76
2022/06/10 05:56:43;;;;;;;1999.90;999.90;;;14.90;99.90;;;;;;5094748;28;20040;-76
2022/06/10 05:59:10;;;;;;;1999.90;999.90;;;15.00;99.90;;;;;;5061665;28;20484;-76
2022/06/10 06:01:35;;;;;;;1999.90;999.90;;;15.00;99.90;;;;;;5054716;28;20131;-76
2022/06/10 06:04:01;;;;;;;1999.90;999.90;;;15.10;99.90;;;;;;5043767;28;20634;-76
2022/06/10 06:06:27;;;;;;;1999.90;999.90;;;15.10;99.90;;;;;;5083007;28;20086;-76
2022/06/10 06:08:52;;;;;;;1999.90;999.90;;;15.20;99.90;;;;;;5048416;28;20044;-76
2022/06/10 06:11:18;;;;;;;1999.90;999.90;;;15.30;99.90;;;;;;5066603;28;20141;-76
2022/06/10 06:13:44;;;;;;;1999.90;999.90;;;15.60;99.90;;;;;;5077443;28;20119;-75
2022/06/10 06:16:15;;;;;;;1999.90;999.90;;;15.90;99.90;;;;;;5084216;28;20052;-76
2022/06/10 06:18:42;;;;;;;1999.90;999.90;;;15.90;99.90;;;;;;5072138;28;20039;-76
2022/06/10 06:21:08;;;;;;;1999.90;999.90;;;15.90;99.90;;;;;;5086532;28;20385;-76
2022/06/10 06:23:34;;;;;;;1999.90;999.90;;;15.80;99.90;;;;;;5079955;28;20127;-76
2022/06/10 06:26:00;;;;;;;1999.90;999.90;;;15.60;99.90;;;;;;5079299;28;20173;-76
2022/06/10 06:28:27;;;;;;;1999.90;999.90;;;15.50;99.90;;;;;;5059532;28;20047;-76
2022/06/10 06:30:52;;;;;;;1999.90;999.90;;;15.30;99.90;;;;;;5088080;28;20062;-76
2022/06/10 06:33:19;;;;;;;1999.90;999.90;;;15.20;99.90;;;;;;5085365;28;20040;-76
2022/06/10 06:35:50;;;;;;;1999.90;999.90;;;15.10;99.90;;;;;;5081551;28;20079;-76
2022/06/10 06:38:17;;;;;;;1999.90;999.90;;;15.10;99.90;;;;;;5076799;28;20581;-76
2022/06/10 06:40:43;;;;;;;1999.90;999.90;;;15.20;99.90;;;;;;5083973;28;20040;-76
2022/06/10 06:43:09;;;;;;;1999.90;999.90;;;15.30;99.90;;;;;;5097342;28;20047;-76
2022/06/10 06:45:36;;;;;;;1999.90;999.90;;;15.40;99.90;;;;;;5060226;28;20040;-76
2022/06/10 06:48:04;;;;;;;1999.90;999.90;;;15.60;99.90;;;;;;5065015;28;20454;-75
2022/06/10 06:50:32;;;;;;;1999.90;999.90;;;15.80;99.90;;;;;;5087989;28;20048;-76
2022/06/10 06:52:58;;;;;;;1999.90;999.90;;;16.10;99.90;;;;;;5050195;28;20509;-76
2022/06/10 06:55:23;;;;;;;1999.90;999.90;;;16.70;99.90;;;;;;5076030;28;20035;-76
2022/06/10 06:57:49;;;;;;;1999.90;999.90;;;17.10;99.90;;;;;;5081778;28;20048;-76
2022/06/10 07:00:17;;;;;;;1999.90;999.90;;;17.30;99.90;;;;;;5082639;28;20028;-76
2022/06/10 07:02:42;;;;;;;1999.90;999.90;;;17.40;99.90;;;;;;5080942;28;20058;-76
2022/06/10 07:05:10;;;;;;;1999.90;999.90;;;17.40;99.90;;;;;;5088356;28;20044;-76
2022/06/10 07:07:36;;;;;;;1999.90;999.90;;;17.10;99.90;;;;;;5074716;28;20458;-76
2022/06/10 07:10:03;;;;;;;1999.90;999.90;;;16.90;99.90;;;;;;5086566;28;20359;-76
2022/06/10 07:12:29;;;;;;;1999.90;999.90;;;16.70;99.90;;;;;;5065018;28;20051;-76
2022/06/10 07:14:54;;;;;;;1999.90;999.90;;;16.70;99.90;;;;;;5068961;28;20417;-76
2022/06/10 07:17:20;;;;;;;1999.90;999.90;;;16.60;99.90;;;;;;5071867;28;20047;-76
2022/06/10 07:19:50;;;;;;;1999.90;999.90;;;16.60;99.90;;;;;;5062142;28;20036;-76
2022/06/10 07:22:16;;;;;;;1999.90;999.90;;;16.70;99.90;;;;;;5073130;28;20047;-76
2022/06/10 07:24:42;;;;;;;1999.90;999.90;;;16.70;99.90;;;;;;5073010;28;20052;-76
2022/06/10 07:27:10;;;;;;;1999.90;999.90;;;16.70;99.90;;;;;;5067367;28;20481;-76
2022/06/10 07:29:35;;;;;;;1999.90;999.90;;;16.70;99.90;;;;;;5036725;28;20040;-76
2022/06/10 07:32:01;;;;;;;1999.90;999.90;;;16.80;99.90;;;;;;5069332;28;20055;-76
2022/06/10 07:34:27;;;;;;;1999.90;999.90;;;16.80;99.90;;;;;;5073399;28;20067;-76
2022/06/10 07:36:52;;;;;;;1999.90;999.90;;;17.00;99.90;;;;;;5070945;28;20039;-76
2022/06/10 07:39:18;;;;;;;1999.90;999.90;;;17.00;99.90;;;;;;5053556;28;20089;-76
2022/06/10 07:42:01;;;;;;;1999.90;999.90;;;17.10;99.90;;;;;;5041805;28;20036;-76
2022/06/10 07:44:35;;;;;;;1999.90;999.90;;;17.20;99.90;;;;;;5091383;28;20386;-76
2022/06/10 07:47:08;;;;;;;1999.90;999.90;;;17.20;99.90;;;;;;5086807;28;20054;-76
2022/06/10 07:49:35;;;;;;;1999.90;999.90;;;17.20;99.90;;;;;;5090782;28;20118;-76
2022/06/10 07:52:01;;;;;;;1999.90;999.90;;;17.10;99.90;;;;;;5088158;28;20044;-76
2022/06/10 07:54:26;;;;;;;1999.90;999.90;;;17.00;99.90;;;;;;5077085;28;20060;-76
2022/06/10 07:56:52;;;;;;;1999.90;999.90;;;17.00;99.90;;;;;;5091110;28;20042;-77
2022/06/10 07:59:19;;;;;;;1999.90;999.90;;;17.00;99.90;;;;;;5076343;28;20079;-76
2022/06/10 08:01:44;;;;;;;1999.90;999.90;;;17.00;99.90;;;;;;5090710;28;20028;-76
2022/06/10 08:04:10;;;;;;;1999.90;999.90;;;17.00;99.90;;;;;;5071776;28;20102;-76
2022/06/10 08:06:42;;;;;;;1999.90;999.90;;;17.10;99.90;;;;;;5083569;28;20040;-76
2022/06/10 08:09:08;;;;;;;1999.90;999.90;;;17.10;99.90;;;;;;5076259;28;20052;-76
2022/06/10 08:11:34;;;;;;;1999.90;999.90;;;17.30;99.90;;;;;;5092673;28;20082;-76
2022/06/10 08:13:59;;;;;;;1999.90;999.90;;;17.40;99.90;;;;;;5097663;28;20040;-76
2022/06/10 08:16:25;;;;;;;1999.90;999.90;;;17.60;99.90;;;;;;5087611;28;20131;-76
2022/06/10 08:18:52;;;;;;;1999.90;999.90;;;17.70;99.90;;;;;;5083748;28;20096;-76
2022/06/10 08:24:03;;;;;;;1999.90;999.90;;;17.70;99.90;;;;;;5065769;28;20387;-77
2022/06/10 08:26:29;;;;;;;1999.90;999.90;;;17.70;99.90;;;;;;5084381;28;20089;-76
2022/06/10 08:28:55;;;;;;;1999.90;999.90;;;17.70;99.90;;;;;;5054739;28;20428;-76
2022/06/10 08:31:21;;;;;;;1999.90;999.90;;;17.70;99.90;;;;;;5082043;28;20050;-76
2022/06/10 08:33:47;;;;;;;1999.90;999.90;;;17.80;99.90;;;;;;5085324;28;20481;-76
2022/06/10 08:36:13;;;;;;;1999.90;999.90;;;17.90;99.90;;;;;;5068074;28;20079;-76
2022/06/10 08:38:42;;;;;;;1999.90;999.90;;;17.80;99.90;;;;;;5085966;28;20119;-76
2022/06/10 08:41:25;;;;;;;1999.90;999.90;;;17.80;99.90;;;;;;5073858;28;20118;-76
2022/06/10 08:43:57;;;;;;;1999.90;999.90;;;17.60;99.90;;;;;;5076392;28;20040;-76
2022/06/10 08:46:30;;;;;;;1999.90;999.90;;;17.40;99.90;;;;;;5073535;28;20072;-77
2022/06/10 08:49:04;;;;;;;1999.90;999.90;;;17.40;99.90;;;;;;5080097;28;20299;-76
2022/06/10 08:51:51;;;;;;;1999.90;999.90;;;17.30;99.90;;;;;;5078082;28;20409;-76
2022/06/10 08:54:31;;;;;;;1999.90;999.90;;;17.50;99.90;;;;;;5071329;28;20052;-77
2022/06/10 08:57:02;;;;;;;1999.90;999.90;;;17.70;99.90;;;;;;5090105;28;20047;-77
2022/06/10 08:59:38;;;;;;;1999.90;999.90;;;17.90;99.90;;;;;;5080976;28;20067;-76
2022/06/10 09:02:15;;;;;;;1999.90;999.90;;;17.90;99.90;;;;;;5092348;28;20036;-77
2022/06/10 09:04:57;;;;;;;1999.90;999.90;;;17.90;99.90;;;;;;5086511;28;20035;-77
2022/06/10 09:07:35;;;;;;;1999.90;999.90;;;18.00;99.90;;;;;;5066743;28;20481;-76
2022/06/10 09:10:03;;;;;;;1999.90;999.90;;;18.10;99.90;;;;;;5072376;28;20040;-77
2022/06/10 09:12:53;;;;;;;1999.90;999.90;;;18.20;99.90;;;;;;5089435;28;20520;-76
2022/06/10 09:15:23;;;;;;;1999.90;999.90;;;18.20;99.90;;;;;;5066185;28;20055;-77
2022/06/10 09:18:07;;;;;;;1999.90;999.90;;;18.10;99.90;;;;;;5075375;28;20131;-76
2022/06/10 09:20:51;;;;;;;1999.90;999.90;;;17.90;99.90;;;;;;5100431;28;20043;-75
2022/06/10 09:23:40;;;;;;;1999.90;999.90;;;17.70;99.90;;;;;;5057431;28;20052;-76
2022/06/10 09:26:10;;;;;;;1999.90;999.90;;;17.60;99.90;;;;;;5070238;28;20215;-77
2022/06/10 09:28:39;;;;;;;1999.90;999.90;;;17.50;99.90;;;;;;5074630;28;20079;-77
2022/06/10 09:31:28;;;;;;;1999.90;999.90;;;17.50;99.90;;;;;;5084719;28;20039;-76
2022/06/10 09:34:19;;;;;;;1999.90;999.90;;;17.50;99.90;;;;;;5056721;28;20075;-76
2022/06/10 09:37:15;;;;;;;1999.90;999.90;;;17.50;99.90;;;;;;5064763;28;20055;-77
2022/06/10 09:43:01;;;;;;;1999.90;999.90;;;17.60;99.90;;;;;;5080336;28;20047;-77
2022/06/10 09:45:46;;;;;;;1999.90;999.90;;;17.90;99.90;;;;;;5072559;28;20520;-76
2022/06/10 09:48:41;;;;;;;1999.90;999.90;;;18.10;99.90;;;;;;5100358;28;20127;-76
2022/06/10 09:51:28;;;;;;;1999.90;999.90;;;18.20;99.90;;;;;;5094378;28;20043;-77
2022/06/10 09:54:03;;;;;;;1999.90;999.90;;;18.20;99.90;;;;;;5078819;28;20040;-76
2022/06/10 09:56:37;;;;;;;1999.90;999.90;;;18.10;99.90;;;;;;5088618;28;20047;-76
2022/06/10 09:59:09;;;;;;;1999.90;999.90;;;18.10;99.90;;;;;;5074448;28;20050;-76
2022/06/10 10:01:54;;;;;;;1999.90;999.90;;;18.00;99.90;;;;;;5081458;28;20040;-77
2022/06/10 10:05:03;;;;;;;1999.90;999.90;;;18.00;99.90;;;;;;5075829;28;20118;-76
2022/06/10 10:07:48;;;;;;;1999.90;999.90;;;18.00;99.90;;;;;;5066241;28;20044;-77
2022/06/10 10:10:22;;;;;;;1999.90;999.90;;;18.00;99.90;;;;;;5063953;28;20055;-76
2022/06/10 10:13:10;;;;;;;1999.90;999.90;;;18.10;99.90;;;;;;5088786;28;20040;-76
2022/06/10 10:15:43;;;;;;;1999.90;999.90;;;18.20;99.90;;;;;;5087222;28;20059;-77
2022/06/10 10:18:39;;;;;;;1999.90;999.90;;;18.30;99.90;;;;;;5073833;28;20044;-76
2022/06/10 10:21:15;;;;;;;1999.90;999.90;;;18.50;99.90;;;;;;5071362;28;20040;-77
2022/06/10 10:23:46;;;;;;;1999.90;999.90;;;18.60;99.90;;;;;;5071173;28;20092;-77
2022/06/10 10:26:38;;;;;;;1999.90;999.90;;;18.80;99.90;;;;;;5081747;28;20543;-76
2022/06/10 10:29:13;;;;;;;1999.90;999.90;;;18.80;99.90;;;;;;5090136;28;20094;-76
2022/06/10 10:31:54;;;;;;;1999.90;999.90;;;18.80;99.90;;;;;;5050691;28;20501;-76
2022/06/10 10:34:24;;;;;;;1999.90;999.90;;;18.70;99.90;;;;;;5089585;28;20040;-77
2022/06/10 10:36:52;;;;;;;1999.90;999.90;;;18.70;99.90;;;;;;5081370;28;20051;-76
2022/06/10 10:39:34;;;;;;;1999.90;999.90;;;18.70;99.90;;;;;;5073218;28;20036;-76
2022/06/10 10:42:27;;;;;;;1999.90;999.90;;;18.60;99.90;;;;;;5080473;28;20078;-77
2022/06/10 10:45:05;;;;;;;1999.90;999.90;;;18.60;99.90;;;;;;5066904;28;20096;-76
2022/06/10 10:47:34;;;;;;;1999.90;999.90;;;18.50;99.90;;;;;;5078594;28;20042;-77
2022/06/10 10:50:06;;;;;;;1999.90;999.90;;;18.50;99.90;;;;;;5070228;28;20085;-76
2022/06/10 10:52:34;;;;;;;1999.90;999.90;;;18.40;99.90;;;;;;5037270;28;20067;-76
2022/06/10 10:55:21;;;;;;;1999.90;999.90;;;18.40;99.90;;;;;;5060707;28;20054;-77
2022/06/10 10:57:59;;;;;;;1999.90;999.90;;;18.50;99.90;;;;;;5076647;28;20389;-76
2022/06/10 11:00:31;;;;;;;1999.90;999.90;;;18.60;99.90;;;;;;5083765;28;20098;-76
2022/06/10 11:02:58;;;;;;;;;;;18.70;99.90;;;;;;5080209;28;20047;-77
2022/06/10 11:05:26;;;;;;;1999.90;999.90;;;18.90;99.90;;;;;;5085889;28;19973;-76
2022/06/10 11:08:10;;;;;;;1999.90;999.90;;;19.00;99.90;;;;;;5072998;28;20049;-76
2022/06/10 11:10:51;;;;;;;1999.90;999.90;;;19.00;99.90;;;;;;5087028;28;20046;-76
2022/06/10 11:13:24;;;;;;;1999.90;999.90;;;18.80;99.90;;;;;;5081084;28;20044;-77
2022/06/10 11:15:50;;;;;;;1999.90;999.90;;;18.70;99.90;;;;;;5060932;28;20469;-77
2022/06/10 11:18:15;;;;;;;1999.90;999.90;;;18.90;99.90;;;;;;5092230;28;20041;-76
2022/06/10 11:20:41;;;;;;;1999.90;999.90;;;19.30;99.90;;;;;;5091605;28;20087;-76
2022/06/10 11:23:26;;;;;;;1999.90;999.90;;;19.80;99.90;;;;;;5087885;28;20458;-77
2022/06/10 11:26:12;;;;;;;1999.90;999.90;;;20.40;99.90;;;;;;5060160;28;20040;-77
2022/06/10 11:28:41;;;;;;;1999.90;999.90;;;20.70;99.90;;;;;;5066500;28;20054;-76
2022/06/10 11:31:30;;;;;;;1999.90;999.90;;;20.90;99.90;;;;;;5088900;28;20084;-77
2022/06/10 11:33:58;;;;;;;1999.90;999.90;;;20.80;99.90;;;;;;5084997;28;20036;-77
2022/06/10 11:36:35;;;;;;;1999.90;999.90;;;20.70;99.90;;;;;;5086865;28;20039;-76
2022/06/10 11:39:19;;;;;;;1999.90;999.90;;;20.80;99.90;;;;;;5089788;28;20048;-77
2022/06/10 11:42:07;;;;;;;1999.90;999.90;;;21.00;99.90;;;;;;5076225;28;20042;-77
2022/06/10 11:44:40;;;;;;;1999.90;999.90;;;21.10;99.90;;;;;;5079421;28;20485;-77
2022/06/10 11:47:25;;;;;;;1999.90;999.90;;;21.10;99.90;;;;;;5083219;28;20059;-76
2022/06/10 11:50:00;;;;;;;1999.90;999.90;;;21.10;99.90;;;;;;5074950;28;20032;-76
2022/06/10 11:52:35;;;;;;;1999.90;999.90;;;21.40;99.90;;;;;;5061935;28;20085;-77
2022/06/10 11:55:25;;;;;;;1999.90;999.90;;;21.60;99.90;;;;;;5087461;28;20083;-76
2022/06/10 12:00:55;;;;;;;1999.90;999.90;;;22.30;99.90;;;;;;5081331;28;20506;-77
2022/06/10 12:03:44;;;;;;;1999.90;999.90;;;22.10;99.90;;;;;;5084933;28;20274;-76
2022/06/10 12:06:25;;;;;;;1999.90;999.90;;;22.00;99.90;;;;;;5089670;28;20052;-76
2022/06/10 12:09:15;;;;;;;1999.90;999.90;;;21.80;99.90;;;;;;5081721;28;20116;-76
2022/06/10 12:11:46;;;;;;;1999.90;999.90;;;21.50;99.90;;;;;;5067592;28;20054;-77
2022/06/10 12:14:27;;;;;;;1999.90;999.90;;;21.20;99.90;;;;;;5088606;28;20043;-77
2022/06/10 12:16:58;;;;;;;1999.90;999.90;;;20.80;99.90;;;;;;5051123;28;20112;-77
2022/06/10 12:19:39;;;;;;;1999.90;999.90;;;20.60;99.90;;;;;;5078300;28;20119;-76
2022/06/10 12:22:05;;;;;;;1999.90;999.90;;;20.40;99.90;;;;;;5053060;28;20029;-76
2022/06/10 12:24:31;;;;;;;1999.90;999.90;;;20.30;99.90;;;;;;5057153;28;20060;-77
2022/06/10 12:27:02;;;;;;;1999.90;999.90;;;20.20;99.90;;;;;;5067382;28;20052;-76
2022/06/10 12:29:43;;;;;;;1999.90;999.90;;;20.20;99.90;;;;;;5076328;28;20097;-77
2022/06/10 12:32:37;;;;;;;1999.90;999.90;;;20.10;99.90;;;;;;5078913;28;20044;-77
2022/06/10 12:35:25;;;;;;;1999.90;999.90;;;20.20;99.90;;;;;;5074339;28;20041;-76
2022/06/10 12:37:57;;;;;;;1999.90;999.90;;;20.60;99.90;;;;;;5075472;28;20044;-77
2022/06/10 12:40:31;;;;;;;1999.90;999.90;;;20.90;99.90;;;;;;5049009;28;20077;-76
2022/06/10 12:43:01;;;;;;;1999.90;999.90;;;21.00;99.90;;;;;;5083266;28;20298;-76
2022/06/10 12:45:33;;;;;;;1999.90;999.90;;;21.00;99.90;;;;;;5085896;28;20036;-76